East Texas Regional Airport
KGGG : rendu visible

Aérodrome :











RETROUVEZ-NOUS SUR...

 
LOGIN :

S'inscrire | Disclaimer

   EN    FR    IT 

 









Légende :    VFR   VFR Marginal   IFR   IFR Intensif   IFR Très Intensif
Visi : 
Plafond : 
>= 8 km
>= 3000ft
5 à 8 km
1000 à 3000 ft
1500m à 5 km
500 à 1000 ft
800 à 1500m
200 à 500 ft
< 800m
< 200 ft
Symboles :   Orages  Brouillard  Fortes neiges  Fortes précipitations  Vent > 20 kt






- Altitude de l'aérodrome : 365 ft
- Code IATA : GGG


KGGG - East Texas Regional

DERNIER METAR :
  • 121753Z 35009KT 10SM CLR 03/M09 A3055 RMK AO2 SLP349 T00281094 10028 21039 58010

METARs EXPIRÉS :
  • 121653Z 35011KT 10SM CLR 01/M09 A3057 RMK AO2 SLP358 T00111094
  • 121553Z 35011KT 10SM CLR M01/M09 A3058 RMK AO2 SLP360 T10061094

TAF KGGG
Valide du 12 à 18h jusqu'au 13 à 18h UTC


121720Z 1218/1318 35011KT P6SM SKC
FM130000 03005KT P6SM SKC
FM131500 16006KT P6SM SKC



MET'MAP, la Météo Aéronautique d'un coup d'oeil ! - Copyright ORBIFLY Décembre 2007 - Disclaimer

ORBIFLY MET'MAP TEAM :

Programmation & Développement : Alexandra Zaïnal
Conception & Développement : Baudouin d'Aumeries
Co-Programmation & Développement : Marc-Olivier Méhu
Soutien technique & logistique : Manuel Goepfert

Contact : metmap@orbifly.com




SOURCES & CREDITS :

   NOAA       Earth
Advisory